logo
Rechercher aéroport 
image banner adimage banner adimage banner ad
image banner ad

24CA - Mesa

Situé à Pasadena, United States

ICAO - 24CA, IATA -

Données fournies par Airmate  

Information générale

Coordonnées: N34°12'20" W118°10'25"
Élévation : 1520 feet MSL.
Variation magnétique : 14° East
Voir autres Aéroports à California

Données opérationnelles

Special qualification required
Heure actuelle UTC:
Heure actuelle locale:
Météo à : KBUR - Bob Hope ( 17 km )
METAR: KBUR 261553Z 00000KT 10SM CLR 26/12 A2994 RMK AO2 SLP123 T02560117
TAF: KBUR 261125Z 2612/2712 VRB03KT P6SM SKC FM262100 16008KT P6SM SKC FM270300 VRB03KT P6SM SKC
Voir NOTAMs / SUP AIP / TFR affectant cet aéroport [VIEW]
Fréquences de communication: [VIEW]

Pistes:

Coordonnées de l'aéroport

Adresse: Pasadena United States

Vue satellite de 24CA